Terminal Aerodrome Forecast
Issued by NWS Omaha/Valley, NE

Home | Current Version | Previous Version | Text Only | Print | Product List | Glossary On
Versions: 1 2 3 4 5 6 7 8 9 10 11 12 13 14 15 16 17 18 19 20 21 22
000
FTUS43 KOAX 231120
TAFOFK
TAF
KOFK 231120Z 2312/2412 VRB04KT 3/4SM BR BKN003
      TEMPO 2312/2314 1/4SM FG VV001
     FM231400 22005KT 4SM HZ SCT015
      TEMPO 2314/2315 1SM BR
     FM231800 21009KT P6SM FEW030
     FM232300 17007KT P6SM SCT020=

USA.gov is the U.S. government's official web portal to all federal, state and local government web resources and services.